Holcomb, Missouri
Current Conditions -  °F | °C
As of 1:53 AM on Monday 22 Dec 2014 (Local Time) from KPOF Reporting Station
Overcast Overcast  
Wind Chill: 40°   Ceiling: 3400
Heat Index: 43°   Visibility: 10mi
Dew Point: 35°   Wind: 5mph
Humidity: 74%   Direction: 120°ESE
Pressure: 29.88"   Gusts: NA
Location:  36.4°N, 90.02°W
Report Text: KPOF 220753Z AUTO 12004KT 10SM BKN034 OVC080 06/02 A2988 RMK AO2 SLP120 T00610017
Loading
Personal Weather Stations






























Interactive Weather Map New forecast layout! Learn more

10-Day Weather Forecast

Advertisements
Track Severe Weather on mobile